Garner, North Carolina
Current Conditions -  °F | °C
As of 10:19 AM on Wednesday 26 Nov 2014 (Local Time) from KRDU Reporting Station
Light Rain Light Rain  
Wind Chill: 37°   Ceiling: 1200
Heat Index: 45°   Visibility: 10mi
Dew Point: 41°   Wind: 17mph
Humidity: 87%   Direction: 50°NE
Pressure: 29.9"   Gusts: 29mph
Location:  35.71°N, 78.62°W
Report Text: KRDU 261519Z 05015G25KT 10SM -RA BKN012 BKN030 OVC070 07/05 A2990 RMK AO2 PRESFR CIG 010V014 P0000 $
Loading
Personal Weather Stations






























Interactive Weather Map New forecast layout! Learn more

10-Day Weather Forecast

Advertisements
Track Severe Weather on mobile